Time;durP1;ratioP1;P1;durP2;ratioP2;P2;SDS_P1;SDS_P2;PMS_P1;PMS_P2;Temp;Humidity;BMP_temperature;BMP_pressure;BME280_temperature;BME280_humidity;BME280_pressure;Samples;Min_cycle;Max_cycle;Signal;HPM_P1;HPM_P2
2021/10/18 00:02:17;;;;;;;10.20;9.20;;;13.10;73.80;;;;;;4989187;28;20034;-81
2021/10/18 00:04:43;;;;;;;12.05;9.75;;;13.00;73.60;;;;;;4988647;28;20061;-81
2021/10/18 00:07:09;;;;;;;10.48;9.48;;;13.00;73.70;;;;;;4989075;28;20113;-79
2021/10/18 00:09:35;;;;;;;11.68;10.48;;;13.00;73.70;;;;;;4988734;28;20030;-78
2021/10/18 00:12:01;;;;;;;11.30;10.20;;;12.90;73.50;;;;;;4988814;28;20113;-78
2021/10/18 00:14:26;;;;;;;11.32;10.20;;;12.90;73.50;;;;;;4988821;28;20034;-78
2021/10/18 00:16:53;;;;;;;12.60;10.52;;;12.90;73.50;;;;;;4988890;28;20113;-76
2021/10/18 00:19:21;;;;;;;11.88;9.50;;;12.90;73.60;;;;;;4988413;28;20557;-79
2021/10/18 00:21:47;;;;;;;11.30;10.25;;;12.80;73.40;;;;;;4988917;28;20030;-77
2021/10/18 00:24:13;;;;;;;11.82;10.65;;;12.90;73.70;;;;;;4987181;28;20030;-78
2021/10/18 00:26:39;;;;;;;12.65;11.43;;;12.80;73.50;;;;;;5007205;28;20096;-77
2021/10/18 00:29:05;;;;;;;11.32;10.05;;;12.80;73.60;;;;;;4998207;28;20469;-77
2021/10/18 00:31:31;;;;;;;11.70;10.55;;;12.80;73.60;;;;;;4988197;28;20034;-78
2021/10/18 00:33:57;;;;;;;11.45;10.30;;;12.80;73.60;;;;;;4988268;28;20041;-78
2021/10/18 00:36:23;;;;;;;11.27;10.18;;;12.70;73.50;;;;;;4988065;28;20046;-78
2021/10/18 00:38:49;;;;;;;11.82;10.38;;;12.70;73.60;;;;;;4987930;28;20062;-76
2021/10/18 00:41:17;;;;;;;11.70;10.48;;;12.70;73.60;;;;;;4988381;28;20042;-76
2021/10/18 00:43:46;;;;;;;12.27;10.85;;;12.60;73.50;;;;;;4970632;28;20035;-75
2021/10/18 00:46:13;;;;;;;12.18;10.98;;;12.70;73.70;;;;;;5003136;28;20086;-76
2021/10/18 00:48:40;;;;;;;11.75;10.55;;;12.60;73.60;;;;;;4988345;28;20437;-76
2021/10/18 00:51:07;;;;;;;12.05;10.85;;;12.70;73.80;;;;;;4986210;28;20033;-77
2021/10/18 00:53:34;;;;;;;11.95;10.70;;;12.60;73.70;;;;;;4987712;28;20441;-76
2021/10/18 00:56:00;;;;;;;11.75;10.45;;;12.60;73.70;;;;;;5001398;28;20045;-76
2021/10/18 00:58:27;;;;;;;12.80;11.50;;;12.60;73.70;;;;;;5022440;28;20389;-78
2021/10/18 01:00:53;;;;;;;12.55;11.23;;;12.60;73.70;;;;;;5007140;28;20489;-77
2021/10/18 01:03:19;;;;;;;11.55;10.40;;;12.60;74.30;;;;;;5000509;28;20037;-78
2021/10/18 01:05:46;;;;;;;11.68;10.57;;;12.60;73.80;;;;;;4987859;28;20034;-76
2021/10/18 01:08:12;;;;;;;11.88;10.73;;;12.60;73.80;;;;;;4989109;28;20371;-76
2021/10/18 01:10:38;;;;;;;13.65;12.27;;;12.60;73.90;;;;;;5007318;28;20448;-75
2021/10/18 01:13:04;;;;;;;13.07;11.77;;;12.60;73.90;;;;;;5002413;28;20030;-77
2021/10/18 01:15:31;;;;;;;10.80;9.75;;;12.60;74.40;;;;;;4987756;28;20337;-77
2021/10/18 01:17:57;;;;;;;12.38;11.10;;;12.50;73.70;;;;;;4987689;28;20026;-78
2021/10/18 01:20:30;;;;;;;13.25;11.95;;;12.50;73.70;;;;;;5001933;28;20121;-77
2021/10/18 01:22:56;;;;;;;12.80;11.60;;;12.50;73.80;;;;;;4987408;28;20863;-78
2021/10/18 01:25:22;;;;;;;11.70;10.60;;;12.50;73.80;;;;;;4996521;28;20034;-76
2021/10/18 01:27:49;;;;;;;13.60;12.15;;;12.50;73.80;;;;;;5007304;28;20069;-77
2021/10/18 01:30:16;;;;;;;12.50;11.27;;;12.50;73.80;;;;;;4988420;28;20038;-77
2021/10/18 01:32:43;;;;;;;12.68;11.25;;;12.50;74.40;;;;;;4988343;28;20125;-77
2021/10/18 01:35:09;;;;;;;12.57;11.38;;;12.40;73.70;;;;;;4988752;28;20193;-77
2021/10/18 01:37:36;;;;;;;13.13;11.73;;;12.40;73.70;;;;;;4989052;28;20351;-78
2021/10/18 01:40:07;;;;;;;12.27;11.00;;;12.40;73.80;;;;;;4988427;28;20109;-79
2021/10/18 01:42:33;;;;;;;12.23;10.90;;;12.40;73.80;;;;;;4989026;28;20045;-79
2021/10/18 01:44:59;;;;;;;14.10;11.18;;;12.40;73.80;;;;;;4988450;28;20034;-78
2021/10/18 01:47:27;;;;;;;11.95;10.68;;;12.40;73.90;;;;;;4990927;28;20410;-79
2021/10/18 01:49:56;;;;;;;12.52;11.32;;;12.40;73.90;;;;;;4990252;28;20072;-78
2021/10/18 01:52:23;;;;;;;11.80;10.70;;;12.40;74.00;;;;;;4991991;28;20026;-77
2021/10/18 01:54:49;;;;;;;13.15;11.88;;;12.40;74.00;;;;;;4995020;28;20030;-76
2021/10/18 01:57:16;;;;;;;13.82;12.38;;;12.40;74.00;;;;;;5011118;28;20041;-78
2021/10/18 01:59:42;;;;;;;12.70;11.40;;;12.40;74.00;;;;;;5011848;28;20487;-78
2021/10/18 02:02:08;;;;;;;12.75;11.55;;;12.40;74.00;;;;;;5009696;28;20077;-78
2021/10/18 02:04:34;;;;;;;12.82;11.50;;;12.40;74.00;;;;;;4993771;28;20033;-78
2021/10/18 02:07:00;;;;;;;12.82;11.52;;;12.30;73.80;;;;;;5011444;28;20087;-77
2021/10/18 02:09:26;;;;;;;13.32;11.98;;;12.40;74.00;;;;;;5011034;28;20381;-77
2021/10/18 02:11:52;;;;;;;13.65;12.18;;;12.30;73.90;;;;;;5011551;28;20030;-78
2021/10/18 02:14:18;;;;;;;13.85;12.45;;;12.30;73.90;;;;;;5011162;28;20033;-78
2021/10/18 02:16:44;;;;;;;14.55;12.48;;;12.30;73.90;;;;;;5010919;28;20092;-79
2021/10/18 02:19:10;;;;;;;13.43;11.80;;;12.30;73.90;;;;;;5010926;28;20130;-78
2021/10/18 02:21:36;;;;;;;15.00;13.50;;;12.30;73.90;;;;;;5026107;28;20105;-77
2021/10/18 02:24:02;;;;;;;13.45;11.73;;;12.30;73.90;;;;;;5009800;28;20080;-77
2021/10/18 02:26:29;;;;;;;13.60;12.15;;;12.30;73.90;;;;;;5011152;28;20061;-79
2021/10/18 02:28:55;;;;;;;15.25;13.73;;;12.30;73.90;;;;;;5011583;28;20073;-78
2021/10/18 02:31:22;;;;;;;15.20;13.60;;;12.30;74.00;;;;;;5025976;28;20385;-79
2021/10/18 02:33:48;;;;;;;14.18;12.77;;;12.30;74.00;;;;;;5010878;28;20034;-78
2021/10/18 02:36:14;;;;;;;14.30;12.80;;;12.30;74.00;;;;;;5009781;28;20539;-77
2021/10/18 02:38:40;;;;;;;14.27;12.80;;;12.30;74.00;;;;;;5011042;28;20030;-78
2021/10/18 02:41:07;;;;;;;14.38;12.88;;;12.30;74.00;;;;;;5011117;28;20389;-81
2021/10/18 02:43:33;;;;;;;14.70;13.30;;;12.20;73.80;;;;;;5011009;28;20105;-78
2021/10/18 02:45:59;;;;;;;14.30;12.27;;;12.30;74.00;;;;;;5009526;28;20032;-78
2021/10/18 02:48:25;;;;;;;14.95;13.45;;;12.30;74.10;;;;;;5010963;28;20065;-78
2021/10/18 02:50:52;;;;;;;15.63;13.98;;;12.20;73.90;;;;;;5010341;28;20073;-74
2021/10/18 02:53:20;;;;;;;14.88;13.38;;;12.20;73.90;;;;;;5014902;28;20041;-80
2021/10/18 02:55:46;;;;;;;14.30;12.90;;;12.20;73.90;;;;;;5013355;28;20124;-79
2021/10/18 02:58:12;;;;;;;14.77;13.30;;;12.20;73.90;;;;;;5014407;28;20042;-75
2021/10/18 03:00:38;;;;;;;14.30;12.82;;;12.20;73.90;;;;;;5014739;28;20503;-78
2021/10/18 03:03:06;;;;;;;14.70;13.07;;;12.20;73.90;;;;;;5014423;28;20030;-77
2021/10/18 03:05:32;;;;;;;15.85;14.23;;;12.20;73.90;;;;;;5013090;28;20100;-79
2021/10/18 03:08:01;;;;;;;15.77;14.13;;;12.20;74.00;;;;;;5014504;28;20448;-77
2021/10/18 03:10:27;;;;;;;15.00;13.15;;;12.20;73.90;;;;;;5014504;28;20496;-77
2021/10/18 03:12:53;;;;;;;14.95;12.50;;;12.20;74.00;;;;;;5014145;28;20030;-78
2021/10/18 03:15:19;;;;;;;16.80;14.48;;;12.20;74.00;;;;;;5014352;28;20030;-79
2021/10/18 03:17:45;;;;;;;16.10;13.20;;;12.10;73.80;;;;;;5014345;28;20449;-78
2021/10/18 03:20:13;;;;;;;15.25;13.63;;;12.10;73.80;;;;;;5013767;28;20449;-79
2021/10/18 03:22:39;;;;;;;16.25;14.55;;;12.10;73.90;;;;;;5013057;28;20454;-76
2021/10/18 03:25:07;;;;;;;25.27;14.93;;;12.10;73.90;;;;;;5014017;28;20088;-78
2021/10/18 03:27:33;;;;;;;15.77;14.20;;;12.10;74.00;;;;;;5013689;28;20034;-79
2021/10/18 03:30:00;;;;;;;15.95;14.25;;;12.10;74.00;;;;;;5013974;28;20026;-79
2021/10/18 03:32:26;;;;;;;16.30;14.00;;;12.10;74.10;;;;;;5014158;28;20034;-79
2021/10/18 03:34:52;;;;;;;15.45;13.90;;;12.10;74.10;;;;;;5012993;28;20034;-79
2021/10/18 03:37:21;;;;;;;16.25;14.50;;;12.10;74.20;;;;;;5013857;28;20122;-78
2021/10/18 03:39:47;;;;;;;17.20;15.00;;;12.10;74.20;;;;;;5012711;28;20030;-79
2021/10/18 03:42:15;;;;;;;15.23;13.63;;;12.10;74.20;;;;;;5013166;28;20030;-78
2021/10/18 03:44:41;;;;;;;16.63;15.00;;;12.10;74.20;;;;;;5013863;28;20036;-78
2021/10/18 03:47:07;;;;;;;15.63;14.00;;;12.10;74.20;;;;;;5013900;28;20117;-77
2021/10/18 03:49:34;;;;;;;15.65;14.00;;;12.10;74.20;;;;;;5011856;28;20026;-78
2021/10/18 03:52:00;;;;;;;15.82;14.23;;;12.20;74.40;;;;;;5013873;28;20397;-74
2021/10/18 03:54:26;;;;;;;15.60;13.95;;;12.10;74.30;;;;;;5012012;28;20060;-78
2021/10/18 03:56:52;;;;;;;14.70;13.15;;;12.10;74.30;;;;;;5013297;28;20434;-76
2021/10/18 03:59:18;;;;;;;15.77;13.75;;;12.20;74.40;;;;;;5012286;28;20037;-78
2021/10/18 04:01:43;;;;;;;16.00;14.38;;;12.20;74.50;;;;;;5013779;28;20038;-77
2021/10/18 04:04:09;;;;;;;15.00;13.23;;;12.20;74.50;;;;;;5013514;28;20029;-76
2021/10/18 04:06:35;;;;;;;15.93;14.20;;;12.10;74.30;;;;;;5012808;28;20026;-75
2021/10/18 04:09:01;;;;;;;16.20;14.43;;;12.20;74.50;;;;;;5013446;28;20041;-77
2021/10/18 04:11:27;;;;;;;15.75;13.98;;;12.20;74.60;;;;;;5012791;28;20497;-78
2021/10/18 04:13:57;;;;;;;15.65;13.88;;;12.20;74.60;;;;;;5012106;28;20053;-76
2021/10/18 04:16:23;;;;;;;15.45;13.75;;;12.20;74.60;;;;;;5012769;28;20509;-76
2021/10/18 04:18:49;;;;;;;15.00;13.40;;;12.20;74.60;;;;;;5013104;28;20058;-76
2021/10/18 04:21:15;;;;;;;15.88;14.23;;;12.20;74.60;;;;;;5012971;28;20077;-77
2021/10/18 04:23:41;;;;;;;14.85;13.30;;;12.20;74.60;;;;;;5012763;28;20033;-77
2021/10/18 04:26:07;;;;;;;15.65;13.07;;;12.30;74.80;;;;;;5012575;28;20500;-77
2021/10/18 04:28:33;;;;;;;14.88;13.23;;;12.30;74.80;;;;;;5011629;28;20121;-77
2021/10/18 04:30:59;;;;;;;15.13;13.52;;;12.30;74.90;;;;;;5011782;28;20156;-77
2021/10/18 04:33:25;;;;;;;15.30;13.75;;;12.40;75.00;;;;;;5013003;28;20061;-77
2021/10/18 04:35:51;;;;;;;15.63;13.95;;;12.40;75.00;;;;;;5013234;28;20041;-78
2021/10/18 04:38:19;;;;;;;14.50;12.93;;;12.40;75.00;;;;;;5012899;28;20021;-78
2021/10/18 04:40:45;;;;;;;14.82;13.27;;;12.40;75.00;;;;;;5012762;28;20373;-78
2021/10/18 04:43:11;;;;;;;15.30;13.70;;;12.40;75.00;;;;;;5012652;28;20030;-78
2021/10/18 04:45:37;;;;;;;15.68;14.07;;;12.40;74.90;;;;;;5012434;28;20048;-78
2021/10/18 04:48:03;;;;;;;15.00;13.50;;;12.50;75.10;;;;;;5001517;28;20046;-77
2021/10/18 04:50:29;;;;;;;14.73;13.23;;;12.50;75.10;;;;;;4989729;28;20545;-79
2021/10/18 04:52:55;;;;;;;14.32;12.82;;;12.50;75.60;;;;;;4989902;28;20031;-80
2021/10/18 04:55:21;;;;;;;16.70;14.98;;;12.50;75.10;;;;;;4997315;28;20057;-77
2021/10/18 04:57:48;;;;;;;15.80;13.50;;;12.50;75.10;;;;;;5004258;28;20624;-78
2021/10/18 05:00:15;;;;;;;14.82;13.32;;;12.50;75.10;;;;;;4989942;28;20030;-76
2021/10/18 05:02:40;;;;;;;14.52;13.02;;;12.50;75.10;;;;;;4988101;28;20026;-79
2021/10/18 05:05:07;;;;;;;14.35;12.88;;;12.50;75.10;;;;;;4988539;28;20100;-79
2021/10/18 05:07:33;;;;;;;15.32;13.73;;;12.50;75.20;;;;;;4989213;28;20041;-79
2021/10/18 05:09:59;;;;;;;14.70;13.23;;;12.50;75.20;;;;;;5006091;28;20093;-79
2021/10/18 05:12:24;;;;;;;13.68;12.25;;;12.60;75.40;;;;;;5005829;28;20057;-79
2021/10/18 05:14:50;;;;;;;16.15;13.25;;;12.60;75.40;;;;;;5006858;28;20030;-76
2021/10/18 05:17:16;;;;;;;14.15;12.77;;;12.60;75.50;;;;;;5007292;28;20041;-77
2021/10/18 05:19:42;;;;;;;14.57;13.05;;;12.60;75.50;;;;;;4987091;28;20109;-79
2021/10/18 05:22:08;;;;;;;13.93;12.45;;;12.70;75.70;;;;;;4987042;28;20038;-79
2021/10/18 05:24:34;;;;;;;15.15;13.65;;;12.70;75.70;;;;;;4987210;28;20042;-77
2021/10/18 05:27:00;;;;;;;15.65;12.70;;;12.80;75.80;;;;;;4987058;28;20033;-75
2021/10/18 05:29:26;;;;;;;13.70;12.30;;;12.80;75.80;;;;;;4987919;28;20038;-79
2021/10/18 05:31:52;;;;;;;14.30;12.90;;;12.80;75.70;;;;;;4987341;28;20040;-78
2021/10/18 05:34:18;;;;;;;14.10;12.70;;;12.90;75.90;;;;;;4999962;28;20034;-75
2021/10/18 05:36:44;;;;;;;14.52;13.10;;;12.90;75.90;;;;;;4969949;28;20613;-79
2021/10/18 05:39:10;;;;;;;14.30;12.80;;;12.90;75.80;;;;;;4986344;28;20107;-79
2021/10/18 05:41:37;;;;;;;13.93;12.43;;;13.00;76.00;;;;;;4985731;28;20382;-78
2021/10/18 05:44:04;;;;;;;14.38;12.98;;;13.00;76.00;;;;;;4987795;28;20034;-79
2021/10/18 05:46:30;;;;;;;13.35;12.00;;;13.00;76.00;;;;;;4987175;28;20492;-77
2021/10/18 05:48:57;;;;;;;15.43;13.82;;;13.00;75.90;;;;;;4985633;28;20026;-77
2021/10/18 05:51:25;;;;;;;14.30;12.73;;;13.10;76.10;;;;;;5001766;28;20042;-78
2021/10/18 05:53:51;;;;;;;13.32;12.02;;;13.10;76.10;;;;;;4985713;28;20089;-77
2021/10/18 05:56:19;;;;;;;14.30;12.82;;;13.10;76.10;;;;;;5018323;28;20042;-79
2021/10/18 05:58:45;;;;;;;15.15;13.55;;;13.10;76.10;;;;;;4994210;28;20601;-77
2021/10/18 06:01:11;;;;;;;14.73;13.23;;;13.20;76.20;;;;;;4986214;28;20034;-77
2021/10/18 06:03:37;;;;;;;16.52;14.77;;;13.20;76.20;;;;;;4988833;28;20032;-77
2021/10/18 06:06:07;;;;;;;14.32;12.93;;;13.20;76.20;;;;;;4987103;28;20030;-76
2021/10/18 06:08:34;;;;;;;14.57;13.07;;;13.20;76.20;;;;;;4997175;28;20034;-77
2021/10/18 06:11:00;;;;;;;14.73;12.95;;;13.20;76.20;;;;;;5005542;28;20044;-77
2021/10/18 06:13:26;;;;;;;13.75;12.27;;;13.30;76.40;;;;;;4993109;28;20042;-77
2021/10/18 06:15:54;;;;;;;13.70;12.38;;;13.30;76.40;;;;;;4985236;28;20038;-78
2021/10/18 06:18:19;;;;;;;14.80;13.05;;;13.30;76.40;;;;;;4985875;28;20501;-77
2021/10/18 06:20:50;;;;;;;16.48;13.65;;;13.30;76.40;;;;;;4984887;28;20050;-77
2021/10/18 06:23:17;;;;;;;13.85;12.38;;;13.40;76.60;;;;;;4986860;28;20070;-80
2021/10/18 06:25:44;;;;;;;15.10;13.50;;;13.40;76.60;;;;;;4998510;28;20034;-80
2021/10/18 06:28:11;;;;;;;13.65;12.23;;;13.40;76.60;;;;;;5009801;28;20478;-79
2021/10/18 06:30:38;;;;;;;13.80;12.43;;;13.40;76.60;;;;;;5010546;28;20029;-77
2021/10/18 06:33:04;;;;;;;13.73;11.95;;;13.40;76.60;;;;;;5000948;28;20567;-79
2021/10/18 06:35:32;;;;;;;13.27;11.98;;;13.50;76.80;;;;;;4991110;28;20062;-76
2021/10/18 06:37:58;;;;;;;14.50;12.90;;;13.50;76.80;;;;;;4990498;28;20029;-80
2021/10/18 06:40:25;;;;;;;13.20;11.90;;;13.50;76.80;;;;;;4990941;28;20048;-79
2021/10/18 06:42:51;;;;;;;13.00;11.70;;;13.50;76.80;;;;;;4990218;28;20026;-78
2021/10/18 06:45:18;;;;;;;13.70;12.40;;;13.50;76.70;;;;;;4990719;28;20129;-78
2021/10/18 06:47:44;;;;;;;14.68;13.18;;;13.60;76.90;;;;;;4972724;28;20140;-76
2021/10/18 06:50:11;;;;;;;14.18;12.75;;;13.60;76.90;;;;;;4989802;28;20026;-80
2021/10/18 06:52:41;;;;;;;14.43;12.93;;;13.60;76.90;;;;;;4990565;28;20433;-79
2021/10/18 06:55:10;;;;;;;13.68;12.32;;;13.60;76.90;;;;;;4997522;28;20041;-79
2021/10/18 06:57:35;;;;;;;14.23;12.68;;;13.60;76.90;;;;;;5009083;28;20030;-80
2021/10/18 07:00:03;;;;;;;14.60;13.20;;;13.60;76.90;;;;;;5009975;28;20030;-82
2021/10/18 07:02:29;;;;;;;13.88;12.52;;;13.70;77.10;;;;;;5005371;28;20041;-82
2021/10/18 07:04:55;;;;;;;14.30;12.77;;;13.70;77.00;;;;;;4989909;28;20444;-78
2021/10/18 07:07:21;;;;;;;14.55;13.25;;;13.80;77.20;;;;;;4990133;28;20042;-75
2021/10/18 07:09:47;;;;;;;14.48;13.02;;;13.70;77.00;;;;;;5009374;28;20088;-81
2021/10/18 07:12:13;;;;;;;14.63;12.40;;;13.80;77.20;;;;;;5007616;28;20061;-76
2021/10/18 07:14:39;;;;;;;14.02;12.35;;;13.80;77.10;;;;;;4990230;28;20389;-75
2021/10/18 07:17:05;;;;;;;13.18;11.82;;;13.80;77.10;;;;;;4990050;28;20121;-76
2021/10/18 07:19:31;;;;;;;14.18;12.52;;;13.90;77.30;;;;;;5006923;28;20144;-75
2021/10/18 07:21:57;;;;;;;13.10;11.77;;;13.90;77.30;;;;;;4979204;28;20050;-76
2021/10/18 07:24:23;;;;;;;15.38;13.95;;;13.90;77.20;;;;;;4988346;28;20257;-81
2021/10/18 07:26:50;;;;;;;13.15;11.82;;;13.90;77.20;;;;;;4990573;28;20088;-82
2021/10/18 07:29:17;;;;;;;14.13;12.68;;;13.90;77.20;;;;;;4988751;28;20519;-76
2021/10/18 07:31:43;;;;;;;13.60;12.30;;;13.90;77.20;;;;;;5004103;28;20494;-75
2021/10/18 07:34:17;;;;;;;12.63;11.40;;;13.90;77.20;;;;;;4989466;28;20128;-76
2021/10/18 07:36:53;;;;;;;13.30;11.88;;;14.00;77.30;;;;;;4977998;28;20065;-77
2021/10/18 07:39:22;;;;;;;12.38;11.18;;;14.00;77.30;;;;;;4987518;28;20037;-75
2021/10/18 07:41:49;;;;;;;13.30;11.90;;;14.00;77.30;;;;;;4989515;28;20041;-78
2021/10/18 07:44:15;;;;;;;13.00;11.70;;;14.00;77.30;;;;;;4988108;28;20121;-79
2021/10/18 07:46:41;;;;;;;13.93;12.52;;;14.00;77.30;;;;;;5004919;28;20042;-83
2021/10/18 07:49:08;;;;;;;14.32;12.75;;;14.00;77.30;;;;;;5003745;28;20033;-82
2021/10/18 07:51:34;;;;;;;13.77;12.43;;;14.10;77.50;;;;;;5007614;28;20040;-79
2021/10/18 07:54:02;;;;;;;12.88;11.57;;;14.10;77.50;;;;;;5008363;28;20081;-80
2021/10/18 07:56:29;;;;;;;12.52;11.32;;;14.10;77.50;;;;;;5007061;28;20559;-82
2021/10/18 07:58:55;;;;;;;12.75;11.55;;;14.10;77.40;;;;;;5008710;28;20025;-79
2021/10/18 08:01:20;;;;;;;11.93;10.45;;;14.10;77.40;;;;;;5007504;28;20498;-79
2021/10/18 08:03:46;;;;;;;19.70;13.02;;;14.20;77.60;;;;;;4994207;28;20030;-83
2021/10/18 08:06:12;;;;;;;13.30;11.55;;;14.20;77.50;;;;;;4990012;28;20026;-76
2021/10/18 08:08:47;;;;;;;12.75;11.20;;;14.30;77.70;;;;;;4989414;28;20043;-79
2021/10/18 08:11:13;;;;;;;11.02;9.88;;;14.30;77.70;;;;;;4989179;28;20093;-79
2021/10/18 08:13:39;;;;;;;12.60;11.27;;;14.40;77.80;;;;;;4988434;28;20031;-81
2021/10/18 08:16:05;;;;;;;13.10;11.73;;;14.40;77.80;;;;;;5002222;28;20042;-80
2021/10/18 08:18:31;;;;;;;12.70;11.40;;;14.40;77.80;;;;;;4998803;28;20061;-81
2021/10/18 08:20:58;;;;;;;12.35;11.20;;;14.40;77.70;;;;;;4989943;28;20060;-82
2021/10/18 08:23:24;;;;;;;11.98;10.77;;;14.50;77.90;;;;;;4988745;28;20023;-82
2021/10/18 08:25:50;;;;;;;11.02;9.85;;;14.50;77.80;;;;;;5001440;28;20292;-80
2021/10/18 08:28:16;;;;;;;12.40;10.63;;;14.60;78.00;;;;;;5000525;28;20033;-79
2021/10/18 08:30:42;;;;;;;10.80;9.70;;;14.60;77.90;;;;;;5003841;28;20049;-76
2021/10/18 08:33:08;;;;;;;10.73;9.25;;;14.70;78.00;;;;;;4987648;28;20052;-76
2021/10/18 08:35:34;;;;;;;11.38;9.95;;;14.70;78.00;;;;;;4987079;28;20030;-78
2021/10/18 08:45:53;;;;;;;11.80;10.05;;;15.00;79.70;;;;;;4989046;28;20022;-79
2021/10/18 08:48:19;;;;;;;11.07;9.93;;;15.00;79.90;;;;;;4994949;28;20402;-80
2021/10/18 08:50:48;;;;;;;10.52;9.45;;;15.10;80.20;;;;;;5004909;28;20492;-77
2021/10/18 08:53:14;;;;;;;9.90;8.93;;;15.20;80.50;;;;;;4997018;28;20388;-78
2021/10/18 08:55:41;;;;;;;10.68;8.75;;;15.20;80.50;;;;;;4998253;28;20049;-78
2021/10/18 08:58:08;;;;;;;10.50;9.40;;;15.20;80.60;;;;;;5006241;28;20121;-79
2021/10/18 09:00:35;;;;;;;8.82;7.95;;;15.30;80.80;;;;;;5007171;28;20069;-77
2021/10/18 09:03:01;;;;;;;8.63;7.82;;;15.30;80.90;;;;;;5007242;28;20060;-76
2021/10/18 09:05:27;;;;;;;8.68;7.88;;;15.30;80.90;;;;;;5007223;28;20489;-77
2021/10/18 09:07:53;;;;;;;8.52;7.65;;;15.30;81.00;;;;;;4985435;28;20042;-81
2021/10/18 09:10:19;;;;;;;9.27;7.85;;;15.40;81.20;;;;;;4988214;28;20042;-83
2021/10/18 09:12:48;;;;;;;7.68;6.97;;;15.40;81.20;;;;;;4987293;28;20065;-81
2021/10/18 09:15:22;;;;;;;8.43;7.60;;;15.30;81.00;;;;;;4987325;28;20042;-78
2021/10/18 09:17:56;;;;;;;8.75;7.85;;;15.40;81.30;;;;;;4987380;28;20038;-76
2021/10/18 09:20:24;;;;;;;8.32;7.50;;;15.40;81.30;;;;;;4985579;28;20031;-76
2021/10/18 09:22:51;;;;;;;7.65;6.93;;;15.50;81.50;;;;;;4987602;28;20602;-76
2021/10/18 09:25:41;;;;;;;7.70;7.00;;;15.50;81.40;;;;;;5011044;28;20034;-78
2021/10/18 09:28:26;;;;;;;7.53;6.78;;;15.50;81.60;;;;;;5000398;28;20027;-77
2021/10/18 09:30:53;;;;;;;6.80;6.20;;;15.50;81.50;;;;;;4988116;28;20093;-79
2021/10/18 09:33:24;;;;;;;6.90;6.20;;;15.60;81.50;;;;;;4987330;28;20539;-79
2021/10/18 09:35:52;;;;;;;7.05;6.00;;;15.60;81.50;;;;;;4987597;28;20038;-81
2021/10/18 09:38:21;;;;;;;7.15;6.45;;;15.60;81.50;;;;;;4987046;28;20564;-75
2021/10/18 09:40:54;;;;;;;6.68;6.07;;;15.70;81.70;;;;;;5002716;28;20602;-83
2021/10/18 09:46:08;;;;;;;7.05;6.35;;;15.70;81.70;;;;;;5006634;28;20033;-83
2021/10/18 10:53:49;;;;;;;3.63;2.83;;;17.60;82.50;;;;;;4994790;28;20040;-81
2021/10/18 10:56:23;;;;;;;3.47;3.17;;;17.70;82.60;;;;;;5005648;28;20433;-74
2021/10/18 10:58:52;;;;;;;4.63;3.17;;;17.80;82.50;;;;;;4994777;28;20046;-79
2021/10/18 11:01:43;;;;;;;4.68;2.63;;;17.90;82.50;;;;;;4986337;28;20131;-79
2021/10/18 11:04:31;;;;;;;3.38;3.08;;;17.90;82.30;;;;;;4985319;28;20061;-76
2021/10/18 11:07:06;;;;;;;2.95;2.72;;;18.00;82.30;;;;;;4985537;28;20158;-77
2021/10/18 11:09:52;;;;;;;2.50;2.15;;;18.00;82.10;;;;;;4986597;28;20038;-81
2021/10/18 11:12:27;;;;;;;3.00;2.70;;;18.10;82.20;;;;;;4986179;28;20026;-76
2021/10/18 11:15:13;;;;;;;2.90;2.20;;;18.10;82.10;;;;;;4990825;28;20065;-78
2021/10/18 11:17:51;;;;;;;3.08;2.50;;;18.00;81.90;;;;;;4989553;28;20042;-78
2021/10/18 11:20:23;;;;;;;2.83;2.47;;;18.00;81.80;;;;;;4981435;28;20061;-76
2021/10/18 11:22:55;;;;;;;3.88;2.60;;;18.00;81.80;;;;;;4994712;28;20033;-78
2021/10/18 11:25:38;;;;;;;3.53;3.22;;;18.00;81.90;;;;;;5000859;28;20034;-79
2021/10/18 11:28:07;;;;;;;5.22;2.95;;;18.00;82.10;;;;;;5002878;28;20113;-79
2021/10/18 11:30:34;;;;;;;3.25;2.45;;;18.00;82.00;;;;;;4988402;28;20084;-80
2021/10/18 11:33:10;;;;;;;2.88;2.58;;;18.00;82.00;;;;;;4989010;28;20069;-77
2021/10/18 11:35:37;;;;;;;6.65;3.70;;;18.00;82.00;;;;;;4988844;28;20042;-78
2021/10/18 11:38:09;;;;;;;6.70;3.83;;;17.90;81.80;;;;;;4994515;28;20306;-78
2021/10/18 11:40:38;;;;;;;5.40;2.80;;;17.90;81.90;;;;;;4997349;28;20401;-78
2021/10/18 11:43:10;;;;;;;3.95;2.90;;;17.90;81.90;;;;;;4991691;28;20101;-76
2021/10/18 11:45:42;;;;;;;5.10;3.60;;;17.90;81.90;;;;;;4988202;28;20038;-77
2021/10/18 11:48:10;;;;;;;4.80;2.30;;;17.90;81.90;;;;;;4989128;28;20141;-78
2021/10/18 11:50:38;;;;;;;4.28;3.35;;;17.90;81.90;;;;;;4990127;28;20026;-76
2021/10/18 11:53:10;;;;;;;3.40;2.40;;;17.90;81.90;;;;;;4988911;28;20038;-79
2021/10/18 11:55:39;;;;;;;4.28;2.72;;;17.90;81.90;;;;;;4999608;28;20396;-77
2021/10/18 11:58:06;;;;;;;4.00;2.55;;;17.90;81.90;;;;;;5003377;28;20039;-77
2021/10/18 12:00:44;;;;;;;6.20;3.20;;;17.90;81.90;;;;;;4988532;28;20108;-77
2021/10/18 12:03:17;;;;;;;3.38;2.13;;;17.90;81.90;;;;;;4989286;28;20037;-80
2021/10/18 12:05:47;;;;;;;;;;;18.00;82.00;;;;;;5004566;28;20093;-79
2021/10/18 12:08:17;;;;;;;4.85;3.65;;;18.00;81.90;;;;;;4988516;28;19914;-81
2021/10/18 12:10:46;;;;;;;4.47;2.88;;;18.00;81.90;;;;;;4989017;28;20486;-78
2021/10/18 12:13:23;;;;;;;3.20;2.50;;;18.10;82.10;;;;;;4988824;28;20034;-78
2021/10/18 12:16:03;;;;;;;4.70;2.38;;;18.00;81.80;;;;;;4988963;28;20061;-80
2021/10/18 12:18:52;;;;;;;2.75;2.45;;;18.10;82.00;;;;;;4987161;28;20030;-81
2021/10/18 12:21:18;;;;;;;3.00;2.22;;;18.10;81.90;;;;;;4989073;28;20093;-81
2021/10/18 12:23:50;;;;;;;3.00;2.60;;;18.10;81.80;;;;;;4986538;28;20034;-81
2021/10/18 12:26:32;;;;;;;3.90;2.20;;;18.10;81.80;;;;;;5004594;28;20393;-82
2021/10/18 12:29:01;;;;;;;5.28;2.70;;;18.10;81.60;;;;;;5007863;28;20393;-83
2021/10/18 12:31:32;;;;;;;11.13;3.75;;;18.20;81.80;;;;;;4990305;28;20080;-79
2021/10/18 12:34:18;;;;;;;6.15;2.85;;;18.20;81.70;;;;;;4992410;28;20482;-81
2021/10/18 12:37:05;;;;;;;5.63;2.70;;;18.20;81.60;;;;;;4988424;28;20053;-79
2021/10/18 12:39:59;;;;;;;7.50;3.15;;;18.20;81.60;;;;;;4987850;28;20030;-77
2021/10/18 12:42:28;;;;;;;;;;;18.20;81.50;;;;;;5004398;28;20045;-83
2021/10/18 12:45:12;;;;;;;5.82;2.75;;;18.20;81.50;;;;;;5008131;28;19955;-83
2021/10/18 12:47:51;;;;;;;8.18;3.53;;;18.20;81.40;;;;;;5008249;28;20104;-81
2021/10/18 12:50:24;;;;;;;8.10;5.68;;;18.10;81.30;;;;;;4969504;28;20034;-84
2021/10/18 12:53:01;;;;;;;10.40;8.80;;;18.10;81.30;;;;;;4972947;28;20034;-81
2021/10/18 12:55:36;;;;;;;10.13;8.95;;;18.10;81.30;;;;;;4997717;28;20045;-81
2021/10/18 12:58:15;;;;;;;10.43;9.13;;;18.10;81.40;;;;;;5002569;28;20026;-77
2021/10/18 13:00:41;;;;;;;9.07;8.13;;;18.10;81.40;;;;;;4990199;28;20069;-81
2021/10/18 13:03:07;;;;;;;9.40;8.27;;;18.10;81.40;;;;;;5007968;28;20073;-82
2021/10/18 13:05:47;;;;;;;8.73;7.90;;;18.10;81.40;;;;;;5008288;28;20101;-80
2021/10/18 13:08:15;;;;;;;10.27;9.07;;;18.10;81.30;;;;;;5007681;28;20045;-82
2021/10/18 13:10:41;;;;;;;7.63;6.63;;;18.10;81.30;;;;;;5005868;28;20038;-83
2021/10/18 13:13:09;;;;;;;8.55;7.65;;;18.00;81.20;;;;;;4995262;28;20026;-85
2021/10/18 13:15:36;;;;;;;8.18;7.38;;;18.00;81.30;;;;;;4985598;28;20026;-85
2021/10/18 13:18:06;;;;;;;9.85;7.93;;;18.00;81.40;;;;;;4988135;28;20077;-82
2021/10/18 13:20:32;;;;;;;8.48;7.13;;;18.00;81.40;;;;;;4988037;28;20054;-85
2021/10/18 13:23:02;;;;;;;10.00;7.80;;;18.00;81.40;;;;;;4988067;28;20053;-87
2021/10/18 13:25:30;;;;;;;9.15;7.47;;;18.00;81.50;;;;;;4997389;28;20221;-83
2021/10/18 13:27:56;;;;;;;8.65;7.80;;;18.00;81.60;;;;;;5019110;28;20026;-82
2021/10/18 13:30:25;;;;;;;8.18;7.38;;;18.00;81.60;;;;;;4986402;28;20124;-81
2021/10/18 13:32:53;;;;;;;8.90;7.78;;;18.00;81.50;;;;;;4975453;28;20034;-81
2021/10/18 13:35:20;;;;;;;7.50;6.78;;;18.00;81.40;;;;;;5021973;28;20037;-84
2021/10/18 13:37:48;;;;;;;8.30;7.00;;;18.00;81.40;;;;;;4997465;28;20035;-83
2021/10/18 13:40:15;;;;;;;6.95;5.93;;;18.00;81.40;;;;;;4989683;28;20107;-89
2021/10/18 13:42:43;;;;;;;7.47;6.72;;;18.00;81.50;;;;;;4990497;28;20034;-88
2021/10/18 13:45:11;;;;;;;6.75;6.05;;;17.90;81.30;;;;;;4988859;28;20526;-85
2021/10/18 13:47:37;;;;;;;6.95;5.75;;;17.90;81.30;;;;;;4987263;28;20097;-88
2021/10/18 13:50:05;;;;;;;6.72;6.00;;;17.90;81.30;;;;;;5002136;28;20057;-87
2021/10/18 13:52:32;;;;;;;7.07;6.38;;;18.00;81.50;;;;;;5003766;28;20104;-81
2021/10/18 13:54:59;;;;;;;6.85;6.28;;;18.00;81.50;;;;;;4987132;28;20114;-81